createdAt,value
2022-12-23T00:00:26.251Z,97243.09
2022-12-23T00:02:53.006Z,97237.44
2022-12-23T00:05:19.819Z,97228.81
2022-12-23T00:07:46.495Z,97236.44
2022-12-23T00:10:13.142Z,97239.66
2022-12-23T00:12:58.208Z,97239.47
2022-12-23T00:15:24.751Z,97243.78
2022-12-23T00:17:51.478Z,97232.59
2022-12-23T00:20:17.963Z,97233.00
2022-12-23T00:23:03.350Z,97233.69
2022-12-23T00:25:42.401Z,97220.41
2022-12-23T00:28:18.155Z,97228.88
2022-12-23T00:30:59.549Z,97234.53
2022-12-23T00:33:32.984Z,97236.88
2022-12-23T00:36:00.771Z,97231.09
2022-12-23T00:38:46.606Z,97237.59
2022-12-23T00:41:36.098Z,97235.19
2022-12-23T00:44:05.160Z,97239.88
2022-12-23T00:46:32.082Z,97239.63
2022-12-23T00:49:17.230Z,97237.69
2022-12-23T00:51:43.709Z,97237.69
2022-12-23T00:54:10.287Z,97239.09
2022-12-23T00:56:36.801Z,97242.13
2022-12-23T00:59:03.646Z,97249.09
2022-12-23T01:01:48.948Z,97252.97
2022-12-23T01:04:36.525Z,97253.22
2022-12-23T01:07:04.299Z,97255.19
2022-12-23T01:09:30.769Z,97253.63
2022-12-23T01:11:57.312Z,97264.88
2022-12-23T01:14:24.821Z,97266.25
2022-12-23T01:16:51.449Z,97267.50
2022-12-23T01:19:18.442Z,97278.69
2022-12-23T01:21:45.164Z,97277.63
2022-12-23T01:24:12.171Z,97287.56
2022-12-23T01:26:38.818Z,97286.16
2022-12-23T01:29:05.418Z,97285.91
2022-12-23T01:31:31.984Z,97291.16
2022-12-23T01:33:58.497Z,97298.59
2022-12-23T01:36:25.067Z,97302.19
2022-12-23T01:38:52.257Z,97299.16
2022-12-23T01:41:46.755Z,97308.28
2022-12-23T01:44:55.646Z,97300.94
2022-12-23T01:47:42.002Z,97311.06
2022-12-23T01:50:21.666Z,97315.94
2022-12-23T01:53:11.129Z,97312.31
2022-12-23T01:55:49.675Z,97319.63
2022-12-23T01:58:36.441Z,97319.06
2022-12-23T02:01:22.379Z,97315.22
2022-12-23T02:03:53.193Z,97311.38
2022-12-23T02:06:49.206Z,97321.59
2022-12-23T02:09:29.265Z,97313.94
2022-12-23T02:12:47.127Z,97328.31
2022-12-23T02:15:47.353Z,97321.84
2022-12-23T02:18:54.327Z,97325.09
2022-12-23T02:21:31.233Z,97327.06
2022-12-23T02:24:39.419Z,97323.25
2022-12-23T02:27:18.895Z,97334.16
2022-12-23T02:30:25.848Z,97332.66
2022-12-23T02:33:15.443Z,97329.84
2022-12-23T02:36:08.585Z,97335.59
2022-12-23T02:38:59.783Z,97326.34
2022-12-23T02:41:41.127Z,97326.72
2022-12-23T02:44:33.397Z,97322.22
2022-12-23T02:47:17.616Z,97329.75
2022-12-23T02:49:51.569Z,97334.28
2022-12-23T02:52:23.973Z,97322.22
2022-12-23T02:54:57.935Z,97332.81
2022-12-23T02:57:43.958Z,97324.78
2022-12-23T03:00:12.963Z,97329.28
2022-12-23T03:02:41.648Z,97340.00
2022-12-23T03:05:41.483Z,97338.97
2022-12-23T03:08:16.855Z,97339.84
2022-12-23T03:10:58.095Z,97341.66
2022-12-23T03:14:05.265Z,97346.00
2022-12-23T03:17:19.676Z,97354.03
2022-12-23T03:19:58.758Z,97354.38
2022-12-23T03:23:07.982Z,97351.47
2022-12-23T03:26:03.418Z,97357.25
2022-12-23T03:28:51.719Z,97357.50
2022-12-23T03:31:27.334Z,97363.28
2022-12-23T03:34:05.354Z,97371.03
2022-12-23T03:36:56.099Z,97378.38
2022-12-23T03:39:32.952Z,97377.38
2022-12-23T03:42:20.827Z,97385.44
2022-12-23T03:45:19.696Z,97385.72
2022-12-23T03:47:55.438Z,97390.06
2022-12-23T03:50:25.263Z,97391.66
2022-12-23T03:53:02.408Z,97391.53
2022-12-23T03:55:46.900Z,97390.41
2022-12-23T03:58:31.633Z,97394.75
2022-12-23T04:01:31.240Z,97392.97
2022-12-23T04:04:11.147Z,97390.84
2022-12-23T04:06:56.480Z,97392.00
2022-12-23T04:09:27.491Z,97406.34
2022-12-23T04:11:54.709Z,97405.00
2022-12-23T04:14:22.795Z,97408.84
2022-12-23T04:16:56.011Z,97403.00
2022-12-23T04:19:22.536Z,97397.25
2022-12-23T04:21:49.128Z,97410.13
2022-12-23T04:24:15.680Z,97401.41
2022-12-23T04:26:42.174Z,97408.03
2022-12-23T04:29:08.651Z,97399.09
2022-12-23T04:31:35.200Z,97403.22
2022-12-23T04:34:01.750Z,97393.19
2022-12-23T04:36:28.254Z,97397.16
2022-12-23T04:38:54.784Z,97400.91
2022-12-23T04:41:21.561Z,97405.41
2022-12-23T04:43:52.946Z,97395.69
2022-12-23T04:46:20.093Z,97402.88
2022-12-23T04:48:46.658Z,97389.97
2022-12-23T04:51:13.168Z,97386.03
2022-12-23T04:53:39.613Z,97393.69
2022-12-23T04:56:06.258Z,97394.16
2022-12-23T04:58:32.763Z,97394.75
2022-12-23T05:01:11.696Z,97401.22
2022-12-23T05:03:39.549Z,97402.03
2022-12-23T05:06:06.882Z,97405.00
2022-12-23T05:08:33.822Z,97405.47
2022-12-23T05:11:00.818Z,97412.53
2022-12-23T05:13:27.342Z,97421.13
2022-12-23T05:15:55.138Z,97410.84
2022-12-23T05:18:22.764Z,97410.66
2022-12-23T05:20:50.929Z,97415.69
2022-12-23T05:23:17.523Z,97414.84
2022-12-23T05:25:49.931Z,97422.00
2022-12-23T05:28:16.401Z,97422.69
2022-12-23T05:30:43.394Z,97418.03
2022-12-23T05:33:09.885Z,97420.53
2022-12-23T05:35:36.389Z,97429.38
2022-12-23T05:38:03.312Z,97423.09
2022-12-23T05:40:32.400Z,97424.16
2022-12-23T05:43:00.586Z,97425.47
2022-12-23T05:45:27.078Z,97425.91
2022-12-23T05:47:53.570Z,97427.59
2022-12-23T05:50:20.028Z,97429.66
2022-12-23T05:52:46.496Z,97432.38
2022-12-23T05:55:12.997Z,97426.88
2022-12-23T05:57:39.495Z,97427.31
2022-12-23T06:00:06.982Z,97428.75
2022-12-23T06:02:33.701Z,97433.66
2022-12-23T06:05:00.232Z,97431.13
2022-12-23T06:07:26.716Z,97428.28
2022-12-23T06:09:53.182Z,97432.13
2022-12-23T06:12:19.678Z,97446.69
2022-12-23T06:14:46.177Z,97451.00
2022-12-23T06:17:12.668Z,97451.97
2022-12-23T06:19:39.136Z,97457.34
2022-12-23T06:22:05.688Z,97455.03
2022-12-23T06:24:32.220Z,97461.25
2022-12-23T06:26:58.723Z,97473.09
2022-12-23T06:29:25.382Z,97473.75
2022-12-23T06:31:51.980Z,97473.63
2022-12-23T06:34:18.578Z,97478.50
2022-12-23T06:36:45.028Z,97474.31
2022-12-23T06:39:11.835Z,97470.69
2022-12-23T06:41:38.473Z,97467.53
2022-12-23T06:44:05.377Z,97486.50
2022-12-23T06:46:32.058Z,97471.31
2022-12-23T06:48:58.825Z,97471.44
2022-12-23T06:51:25.330Z,97467.16
2022-12-23T06:53:51.827Z,97463.69
2022-12-23T06:56:18.838Z,97458.88
2022-12-23T06:58:45.448Z,97455.41
2022-12-23T07:01:12.254Z,97465.09
2022-12-23T07:03:39.036Z,97456.78
2022-12-23T07:06:06.085Z,97458.91
2022-12-23T07:08:32.604Z,97459.25
2022-12-23T07:11:01.892Z,97455.22
2022-12-23T07:13:28.448Z,97463.22
2022-12-23T07:15:55.248Z,97470.28
2022-12-23T07:18:23.336Z,97469.19
2022-12-23T07:20:51.273Z,97484.22
2022-12-23T07:23:17.904Z,97482.28
2022-12-23T07:25:44.766Z,97471.78
2022-12-23T07:28:11.240Z,97463.50
2022-12-23T07:30:37.830Z,97469.88
2022-12-23T07:33:04.323Z,97469.88
2022-12-23T07:35:30.865Z,97484.44
2022-12-23T07:37:57.359Z,97501.16
2022-12-23T07:40:25.330Z,97513.38
2022-12-23T07:42:58.009Z,97516.63
2022-12-23T07:45:29.504Z,97519.09
2022-12-23T07:47:59.480Z,97521.38
2022-12-23T07:50:27.572Z,97531.28
2022-12-23T07:52:54.778Z,97537.41
2022-12-23T07:55:21.807Z,97529.38
2022-12-23T07:57:50.456Z,97521.50
2022-12-23T08:00:18.005Z,97519.22
2022-12-23T08:02:44.725Z,97523.63
2022-12-23T08:05:12.236Z,97521.34
2022-12-23T08:07:39.076Z,97527.81
2022-12-23T08:10:07.397Z,97532.88
2022-12-23T08:12:34.140Z,97519.34
2022-12-23T08:15:00.615Z,97520.78
2022-12-23T08:17:30.352Z,97517.41
2022-12-23T08:19:57.419Z,97516.06
2022-12-23T08:22:24.937Z,97523.13
2022-12-23T08:24:52.487Z,97521.41
2022-12-23T08:27:19.587Z,97522.75
2022-12-23T08:29:46.151Z,97520.72
2022-12-23T08:32:12.643Z,97514.78
2022-12-23T08:34:39.196Z,97520.72
2022-12-23T08:37:05.675Z,97516.81
2022-12-23T08:39:32.205Z,97519.00
2022-12-23T08:41:58.794Z,97522.97
2022-12-23T08:44:27.925Z,97529.19
2022-12-23T08:46:55.348Z,97523.19
2022-12-23T08:49:22.388Z,97515.09
2022-12-23T08:51:49.794Z,97518.44
2022-12-23T08:54:17.319Z,97524.59
2022-12-23T08:56:43.906Z,97516.03
2022-12-23T08:59:19.637Z,97518.75
2022-12-23T09:01:47.966Z,97512.78
2022-12-23T09:04:15.237Z,97513.81
2022-12-23T09:06:43.205Z,97508.50
2022-12-23T09:09:13.008Z,97502.81
2022-12-23T09:11:39.635Z,97504.03
2022-12-23T09:14:08.451Z,97490.09
2022-12-23T09:16:35.033Z,97490.47
2022-12-23T09:19:01.679Z,97485.81
2022-12-23T09:21:29.341Z,97494.63
2022-12-23T09:23:55.850Z,97501.06
2022-12-23T09:26:29.540Z,97514.13
2022-12-23T09:28:57.516Z,97514.22
2022-12-23T09:31:27.872Z,97521.06
2022-12-23T09:33:59.125Z,97522.97
2022-12-23T09:36:25.642Z,97522.63
2022-12-23T09:38:57.838Z,97519.41
2022-12-23T09:41:42.757Z,97522.28
2022-12-23T09:44:19.574Z,97510.94
2022-12-23T09:47:02.167Z,97496.00
2022-12-23T09:49:29.036Z,97496.56
2022-12-23T09:52:02.958Z,97505.28
2022-12-23T09:54:48.402Z,97511.97
2022-12-23T09:57:25.795Z,97498.44
2022-12-23T10:00:10.894Z,97492.59
2022-12-23T10:03:06.591Z,97491.28
2022-12-23T10:06:17.766Z,97500.09
2022-12-23T10:08:58.182Z,97487.22
2022-12-23T10:11:49.640Z,97479.00
2022-12-23T10:14:23.763Z,97464.19
2022-12-23T10:16:56.896Z,97462.25
2022-12-23T10:19:41.697Z,97471.34
2022-12-23T10:22:26.780Z,97474.59
2022-12-23T10:24:58.562Z,97472.50
2022-12-23T10:27:37.175Z,97471.16
2022-12-23T10:33:31.210Z,97459.75
2022-12-23T10:36:15.930Z,97457.22
2022-12-23T10:39:33.307Z,97447.09
2022-12-23T10:42:40.529Z,97452.63
2022-12-23T10:45:36.277Z,97445.25
2022-12-23T10:48:37.905Z,97442.84
2022-12-23T10:51:23.018Z,97427.81
2022-12-23T10:54:02.515Z,97428.50
2022-12-23T10:56:30.688Z,97416.84
2022-12-23T10:59:01.041Z,97405.22
2022-12-23T11:01:31.198Z,97403.63
2022-12-23T11:04:18.135Z,97401.34
2022-12-23T11:07:10.854Z,97393.22
2022-12-23T11:09:43.765Z,97383.66
2022-12-23T11:12:13.290Z,97379.94
2022-12-23T11:14:56.667Z,97383.84
2022-12-23T11:17:33.290Z,97364.59
2022-12-23T11:20:26.367Z,97368.09
2022-12-23T11:23:02.706Z,97361.31
2022-12-23T11:25:40.688Z,97363.53
2022-12-23T11:28:10.736Z,97356.84
2022-12-23T11:31:12.161Z,97343.22
2022-12-23T11:33:49.074Z,97338.94
2022-12-23T11:36:23.912Z,97340.28
2022-12-23T11:38:57.259Z,97341.00
2022-12-23T11:41:27.653Z,97338.69
2022-12-23T11:44:01.632Z,97325.34
2022-12-23T11:46:33.357Z,97322.44
2022-12-23T11:49:26.138Z,97328.84
2022-12-23T11:52:12.346Z,97331.84
2022-12-23T11:54:39.479Z,97322.53
2022-12-23T11:57:16.986Z,97326.41
2022-12-23T11:59:49.846Z,97335.44
2022-12-23T12:02:30.329Z,97326.22
2022-12-23T12:05:15.325Z,97313.22
2022-12-23T12:07:46.324Z,97324.47
2022-12-23T12:10:21.015Z,97321.94
2022-12-23T12:12:55.479Z,97321.63
2022-12-23T12:16:13.586Z,97312.03
2022-12-23T12:18:42.700Z,97297.19
2022-12-23T12:21:23.731Z,97292.00
2022-12-23T12:24:14.830Z,97280.69
2022-12-23T12:26:43.866Z,97274.06
2022-12-23T12:29:51.473Z,97254.78
2022-12-23T12:32:48.493Z,97254.28
2022-12-23T12:35:44.118Z,97241.03
2022-12-23T12:38:27.051Z,97223.88
2022-12-23T12:41:16.210Z,97216.16
2022-12-23T12:44:00.046Z,97224.69
2022-12-23T12:47:44.814Z,97203.22
2022-12-23T12:50:16.760Z,97197.59
2022-12-23T12:52:44.002Z,97187.00
2022-12-23T12:55:29.251Z,97184.38
2022-12-23T12:57:55.742Z,97185.91
2022-12-23T13:00:24.907Z,97185.06
2022-12-23T13:03:19.471Z,97179.53
2022-12-23T13:06:51.989Z,97183.84
2022-12-23T13:09:58.729Z,97174.44
2022-12-23T13:12:45.188Z,97173.88
2022-12-23T13:15:22.845Z,97168.16
2022-12-23T13:18:33.138Z,97157.91
2022-12-23T13:21:07.645Z,97163.00
2022-12-23T13:24:06.016Z,97152.19
2022-12-23T13:26:54.039Z,97149.56
2022-12-23T13:30:06.445Z,97153.06
2022-12-23T13:33:04.962Z,97147.53
2022-12-23T13:36:06.266Z,97143.06
2022-12-23T13:39:11.168Z,97124.09
2022-12-23T13:42:05.035Z,97126.97
2022-12-23T13:44:35.229Z,97113.56
2022-12-23T13:47:28.858Z,97118.53
2022-12-23T13:50:17.251Z,97122.44
2022-12-23T13:53:17.906Z,97122.88
2022-12-23T13:56:17.532Z,97110.50
2022-12-23T13:58:49.721Z,97092.66
2022-12-23T14:01:16.190Z,97076.31
2022-12-23T14:03:43.632Z,97053.63
2022-12-23T14:06:25.976Z,97050.44
2022-12-23T14:08:55.567Z,97048.09
2022-12-23T14:11:30.967Z,97051.69
2022-12-23T14:14:02.353Z,97046.84
2022-12-23T14:17:00.342Z,97045.88
2022-12-23T14:19:51.177Z,97028.84
2022-12-23T14:22:43.429Z,97011.13
2022-12-23T14:25:59.219Z,97012.66
2022-12-23T14:28:37.622Z,97015.97
2022-12-23T14:31:05.747Z,97016.53
2022-12-23T14:33:38.033Z,97016.25
2022-12-23T14:36:23.924Z,97009.31
2022-12-23T14:39:12.302Z,97002.53
2022-12-23T14:41:49.986Z,97000.59
2022-12-23T14:44:43.578Z,97000.59
2022-12-23T14:47:32.077Z,97007.94
2022-12-23T14:50:39.661Z,97001.28
2022-12-23T14:53:27.564Z,96980.53
2022-12-23T14:56:22.743Z,96993.13
2022-12-23T14:58:52.577Z,96969.31
2022-12-23T15:01:58.808Z,96967.66
2022-12-23T15:04:40.473Z,96972.63
2022-12-23T15:07:33.938Z,96967.78
2022-12-23T15:10:09.514Z,96957.97
2022-12-23T15:12:45.828Z,96957.97
2022-12-23T15:15:17.149Z,96954.22
2022-12-23T15:17:44.225Z,96958.78
2022-12-23T15:20:10.839Z,96956.28
2022-12-23T15:22:39.828Z,96954.50
2022-12-23T15:25:33.960Z,96957.69
2022-12-23T15:28:03.194Z,96969.59
2022-12-23T15:30:45.930Z,96977.50
2022-12-23T15:34:00.905Z,96965.28
2022-12-23T15:36:10.663Z,96971.09
2022-12-23T15:38:39.132Z,96952.13
2022-12-23T15:41:16.124Z,96966.69
2022-12-23T15:43:44.116Z,96976.38
2022-12-23T15:46:29.692Z,97001.00
2022-12-23T15:48:57.839Z,97002.09
2022-12-23T15:51:58.241Z,96994.91
2022-12-23T15:54:33.810Z,96982.31
2022-12-23T15:57:03.135Z,96988.94
2022-12-23T15:59:37.397Z,97000.72
2022-12-23T16:05:44.838Z,96987.97
2022-12-23T16:08:15.890Z,96992.38
2022-12-23T16:11:15.686Z,96979.66
2022-12-23T16:13:59.483Z,96987.97
2022-12-23T16:16:41.127Z,96989.47
2022-12-23T16:19:36.701Z,96990.41
2022-12-23T16:22:33.052Z,96993.19
2022-12-23T16:25:14.983Z,96996.22
2022-12-23T16:27:50.403Z,97000.66
2022-12-23T16:30:25.715Z,96986.97
2022-12-23T16:32:57.353Z,96987.22
2022-12-23T16:35:33.187Z,96990.69
2022-12-23T16:38:13.656Z,96995.41
2022-12-23T16:40:41.821Z,97002.59
2022-12-23T16:43:08.379Z,97002.31
2022-12-23T16:45:36.766Z,97013.25
2022-12-23T16:48:20.233Z,97003.97
2022-12-23T16:50:46.900Z,97003.13
2022-12-23T16:53:14.047Z,97003.09
2022-12-23T16:55:46.248Z,97000.84
2022-12-23T16:58:16.917Z,97015.56
2022-12-23T17:00:44.636Z,97021.34
2022-12-23T17:03:17.801Z,97020.41
2022-12-23T17:05:45.606Z,97015.53
2022-12-23T17:08:12.136Z,97024.84
2022-12-23T17:10:42.027Z,97031.63
2022-12-23T17:13:13.170Z,97021.91
2022-12-23T17:15:39.781Z,97026.78
2022-12-23T17:18:14.198Z,97034.53
2022-12-23T17:20:43.100Z,97033.31
2022-12-23T17:23:27.363Z,97027.22
2022-12-23T17:25:54.551Z,97044.78
2022-12-23T17:28:22.452Z,97030.50
2022-12-23T17:30:55.276Z,97050.47
2022-12-23T17:33:29.172Z,97053.47
2022-12-23T17:35:56.021Z,97057.94
2022-12-23T17:38:23.368Z,97060.28
2022-12-23T17:40:50.827Z,97069.94
2022-12-23T17:43:18.884Z,97069.94
2022-12-23T17:45:45.911Z,97092.72
2022-12-23T17:48:20.573Z,97095.63
2022-12-23T17:50:49.148Z,97109.09
2022-12-23T17:53:18.912Z,97096.47
2022-12-23T17:55:46.063Z,97117.09
2022-12-23T17:58:13.978Z,97119.78
2022-12-23T18:00:40.883Z,97114.09
2022-12-23T18:03:22.779Z,97122.03
2022-12-23T18:05:54.220Z,97118.97
2022-12-23T18:08:25.834Z,97130.22
2022-12-23T18:10:52.410Z,97123.97
2022-12-23T18:13:20.188Z,97119.94
2022-12-23T18:15:47.670Z,97123.38
2022-12-23T18:18:26.041Z,97120.66
2022-12-23T18:20:57.115Z,97125.34
2022-12-23T18:23:28.602Z,97123.28
2022-12-23T18:25:56.807Z,97136.44
2022-12-23T18:28:24.669Z,97129.06
2022-12-23T18:30:55.377Z,97135.75
2022-12-23T18:33:22.061Z,97132.41
2022-12-23T18:35:50.811Z,97136.47
2022-12-23T18:38:18.495Z,97141.31
2022-12-23T18:40:45.252Z,97150.19
2022-12-23T18:43:22.335Z,97153.50
2022-12-23T18:45:53.276Z,97147.56
2022-12-23T18:48:20.748Z,97152.53
2022-12-23T18:50:47.304Z,97151.13
2022-12-23T18:53:24.713Z,97152.81
2022-12-23T18:55:53.401Z,97164.03
2022-12-23T18:58:21.224Z,97158.75
2022-12-23T19:00:50.134Z,97181.66
2022-12-23T19:03:27.875Z,97175.53
2022-12-23T19:05:56.702Z,97174.72
2022-12-23T19:08:27.195Z,97174.28
2022-12-23T19:10:55.436Z,97174.44
2022-12-23T19:13:22.198Z,97189.13
2022-12-23T19:15:48.817Z,97186.22
2022-12-23T19:18:18.721Z,97187.59
2022-12-23T19:20:47.653Z,97197.31
2022-12-23T19:23:15.330Z,97192.56
2022-12-23T19:25:49.252Z,97188.44
2022-12-23T19:28:21.677Z,97185.91
2022-12-23T19:30:48.605Z,97190.22
2022-12-23T19:33:15.302Z,97185.22
2022-12-23T19:35:42.765Z,97187.03
2022-12-23T19:38:10.005Z,97199.91
2022-12-23T19:40:36.549Z,97204.22
2022-12-23T19:43:03.765Z,97193.81
2022-12-23T19:45:30.256Z,97202.69
2022-12-23T19:47:56.759Z,97195.06
2022-12-23T19:50:23.238Z,97202.00
2022-12-23T19:52:50.671Z,97214.88
2022-12-23T19:55:17.271Z,97223.50
2022-12-23T19:57:43.917Z,97217.38
2022-12-23T20:00:11.199Z,97217.66
2022-12-23T20:02:37.761Z,97225.03
2022-12-23T20:05:04.873Z,97225.28
2022-12-23T20:07:31.471Z,97227.09
2022-12-23T20:09:57.963Z,97239.03
2022-12-23T20:12:26.347Z,97228.19
2022-12-23T20:14:52.840Z,97238.59
2022-12-23T20:17:19.289Z,97239.16
2022-12-23T20:19:46.510Z,97243.88
2022-12-23T20:22:14.285Z,97252.63
2022-12-23T20:24:40.948Z,97264.97
2022-12-23T20:27:11.431Z,97245.41
2022-12-23T20:29:39.071Z,97265.09
2022-12-23T20:32:05.831Z,97268.97
2022-12-23T20:34:38.585Z,97273.97
2022-12-23T20:37:06.380Z,97271.41
2022-12-23T20:39:33.050Z,97276.84
2022-12-23T20:41:59.701Z,97284.09
2022-12-23T20:44:35.553Z,97276.31
2022-12-23T20:47:04.442Z,97283.66
2022-12-23T20:49:31.073Z,97289.50
2022-12-23T20:51:57.718Z,97296.72
2022-12-23T20:54:31.614Z,97298.00
2022-12-23T20:56:59.569Z,97303.06
2022-12-23T20:59:26.085Z,97309.03
2022-12-23T21:01:52.682Z,97317.34
2022-12-23T21:04:19.388Z,97327.31
2022-12-23T21:06:45.985Z,97329.78
2022-12-23T21:09:14.840Z,97354.38
2022-12-23T21:11:45.068Z,97336.19
2022-12-23T21:14:13.117Z,97333.00
2022-12-23T21:16:40.798Z,97335.34
2022-12-23T21:19:16.790Z,97347.41
2022-12-23T21:21:43.947Z,97334.75
2022-12-23T21:24:11.374Z,97337.06
2022-12-23T21:26:38.809Z,97337.78
2022-12-23T21:29:08.847Z,97338.53
2022-12-23T21:31:38.888Z,97339.31
2022-12-23T21:34:06.831Z,97343.63
2022-12-23T21:36:38.472Z,97345.19
2022-12-23T21:39:07.163Z,97360.31
2022-12-23T21:41:41.114Z,97355.97
2022-12-23T21:44:08.276Z,97351.13
2022-12-23T21:46:35.186Z,97351.53
2022-12-23T21:49:02.787Z,97355.09
2022-12-23T21:51:40.244Z,97365.78
2022-12-23T21:54:09.235Z,97367.34
2022-12-23T21:56:36.011Z,97368.38
2022-12-23T21:59:07.544Z,97379.72
2022-12-23T22:01:34.779Z,97377.66
2022-12-23T22:04:01.295Z,97380.09
2022-12-23T22:06:32.525Z,97386.50
2022-12-23T22:08:59.958Z,97379.56
2022-12-23T22:11:31.322Z,97382.47
2022-12-23T22:14:00.806Z,97392.31
2022-12-23T22:16:30.674Z,97400.00
2022-12-23T22:18:59.892Z,97399.81
2022-12-23T22:21:30.315Z,97399.31
2022-12-23T22:23:57.854Z,97399.50
2022-12-23T22:26:28.838Z,97403.53
2022-12-23T22:28:58.239Z,97410.53
2022-12-23T22:31:39.808Z,97409.88
2022-12-23T22:34:11.429Z,97419.31
2022-12-23T22:36:38.018Z,97425.16
2022-12-23T22:39:05.328Z,97428.31
2022-12-23T22:41:33.036Z,97433.59
2022-12-23T22:44:00.332Z,97439.72
2022-12-23T22:46:27.809Z,97460.59
2022-12-23T22:48:54.813Z,97454.78
2022-12-23T22:51:28.641Z,97465.91
2022-12-23T22:53:58.667Z,97466.16
2022-12-23T22:56:26.435Z,97466.69
2022-12-23T22:58:53.932Z,97484.78
2022-12-23T23:01:25.270Z,97487.22
2022-12-23T23:03:59.373Z,97485.09
2022-12-23T23:06:37.633Z,97487.03
2022-12-23T23:09:07.620Z,97486.69
2022-12-23T23:11:34.988Z,97486.19
2022-12-23T23:14:01.716Z,97495.63
2022-12-23T23:16:29.064Z,97497.06
2022-12-23T23:18:55.801Z,97508.22
2022-12-23T23:21:22.604Z,97504.38
2022-12-23T23:23:49.793Z,97501.75
2022-12-23T23:26:17.915Z,97515.97
2022-12-23T23:28:48.018Z,97501.53
2022-12-23T23:31:41.250Z,97519.88
2022-12-23T23:34:01.201Z,97527.78
2022-12-23T23:36:27.781Z,97523.44
2022-12-23T23:38:54.337Z,97527.94
2022-12-23T23:41:23.616Z,97531.13
2022-12-23T23:43:51.493Z,97527.34
2022-12-23T23:46:18.319Z,97523.22
2022-12-23T23:48:44.810Z,97526.88
2022-12-23T23:51:12.437Z,97531.31
2022-12-23T23:53:38.922Z,97533.31
2022-12-23T23:56:08.009Z,97536.72
2022-12-23T23:58:36.469Z,97539.22
